Terminal Aerodrome Forecast
Issued by NWS

Home | Current Version | Previous Version | Text Only | Print | Product List | Glossary On
Versions: 1 2 3 4 5 6 7 8 9 10 11 12 13 14 15 16 17 18 19 20 21 22 23 24 25
000
FTUS42 KFFC 221100
TAFRYY
TAF
KRYY 221125Z 2212/2312 00000KT P6SM SCT009 BKN035
      TEMPO 2212/2214 BKN009
     FM221400 08003KT P6SM SCT007 BKN012
     FM221600 08003KT P6SM VCSH SCT020 BKN035
      TEMPO 2219/2223 5SM -TSRA BR BKN020CB
     FM230000 00000KT P6SM BKN035
     FM230900 00000KT P6SM BKN006=

USA.gov is the U.S. government's official web portal to all federal, state and local government web resources and services.